Lorton Lick, West Virginia
Current Conditions -  °F | °C
As of 3:52 AM on Monday 22 Dec 2014 (Local Time) from KBLF Reporting Station
Overcast Overcast  
Wind Chill: 33°   Ceiling: 600
Heat Index: 37°   Visibility: 9mi
Dew Point: 32°   Wind: 5mph
Humidity: 82%   Direction: NA
Pressure: 30.09"   Gusts: NA
Location:  37.2994°N, 81.226°W
Report Text: KBLF 220852Z AUTO VRB04KT 9SM OVC006 03/00 A3009 RMK AO2 SLP195 T00280000 58007
Loading
Personal Weather Stations






























Interactive Weather Map New forecast layout! Learn more

10-Day Weather Forecast

Advertisements
Track Severe Weather on mobile